createdAt,value
2022-11-29T00:00:47.971Z,2.97
2022-11-29T00:03:19.473Z,3.38
2022-11-29T00:05:47.869Z,3.08
2022-11-29T00:08:16.137Z,3.33
2022-11-29T00:10:46.956Z,3.00
2022-11-29T00:13:15.227Z,2.90
2022-11-29T00:15:43.555Z,3.58
2022-11-29T00:18:16.269Z,3.00
2022-11-29T00:20:44.636Z,3.05
2022-11-29T00:23:12.963Z,3.13
2022-11-29T00:25:41.224Z,3.05
2022-11-29T00:28:09.468Z,3.30
2022-11-29T00:30:37.824Z,3.38
2022-11-29T00:33:06.117Z,3.40
2022-11-29T00:35:35.753Z,2.95
2022-11-29T00:38:04.083Z,3.80
2022-11-29T00:40:32.430Z,3.40
2022-11-29T00:43:00.748Z,3.63
2022-11-29T00:45:29.077Z,3.05
2022-11-29T00:47:57.382Z,3.10
2022-11-29T00:50:25.743Z,2.78
2022-11-29T00:52:58.076Z,3.35
2022-11-29T00:55:26.395Z,2.92
2022-11-29T00:57:54.726Z,3.00
2022-11-29T01:00:23.152Z,3.35
2022-11-29T01:02:51.492Z,3.20
2022-11-29T01:05:19.795Z,3.05
2022-11-29T01:07:48.124Z,3.20
2022-11-29T01:10:17.923Z,3.08
2022-11-29T01:12:46.276Z,3.15
2022-11-29T01:15:14.640Z,3.17
2022-11-29T01:17:44.569Z,2.85
2022-11-29T01:20:13.543Z,2.92
2022-11-29T01:22:42.057Z,2.88
2022-11-29T01:25:11.481Z,3.08
2022-11-29T01:27:41.172Z,3.10
2022-11-29T01:30:10.343Z,2.72
2022-11-29T01:32:38.753Z,2.80
2022-11-29T01:35:07.638Z,2.97
2022-11-29T01:37:35.950Z,2.83
2022-11-29T01:40:04.616Z,2.60
2022-11-29T01:42:32.940Z,3.10
2022-11-29T01:45:06.049Z,2.88
2022-11-29T01:47:34.416Z,2.97
2022-11-29T01:50:02.968Z,3.10
2022-11-29T01:52:32.204Z,3.05
2022-11-29T01:55:02.925Z,2.90
2022-11-29T01:57:31.468Z,3.08
2022-11-29T02:00:05.706Z,2.60
2022-11-29T02:02:35.241Z,2.65
2022-11-29T02:05:06.357Z,3.00
2022-11-29T02:07:34.737Z,2.75
2022-11-29T02:10:03.364Z,2.47
2022-11-29T02:12:35.972Z,2.83
2022-11-29T02:15:10.511Z,2.72
2022-11-29T02:17:44.629Z,2.67
2022-11-29T02:20:24.536Z,2.88
2022-11-29T02:22:54.474Z,2.88
2022-11-29T02:25:30.334Z,2.42
2022-11-29T02:28:38.092Z,2.65
2022-11-29T02:31:21.379Z,2.65
2022-11-29T02:34:09.822Z,2.20
2022-11-29T02:36:56.812Z,2.80
2022-11-29T02:39:45.152Z,2.58
2022-11-29T02:42:26.410Z,2.60
2022-11-29T02:44:59.888Z,2.63
2022-11-29T02:47:32.753Z,2.08
2022-11-29T02:50:16.236Z,2.70
2022-11-29T02:52:49.092Z,3.15
2022-11-29T02:55:19.216Z,2.55
2022-11-29T02:57:51.491Z,2.28
2022-11-29T03:00:21.083Z,2.30
2022-11-29T03:02:51.806Z,2.50
2022-11-29T03:05:24.960Z,2.60
2022-11-29T03:07:56.837Z,2.88
2022-11-29T03:10:34.930Z,2.53
2022-11-29T03:13:04.457Z,2.97
2022-11-29T03:15:33.714Z,2.67
2022-11-29T03:18:15.310Z,2.83
2022-11-29T03:20:54.749Z,2.53
2022-11-29T03:23:24.319Z,3.08
2022-11-29T03:25:56.157Z,2.92
2022-11-29T03:28:26.069Z,2.67
2022-11-29T03:30:56.780Z,2.63
2022-11-29T03:33:28.715Z,2.58
2022-11-29T03:36:03.522Z,2.42
2022-11-29T03:38:38.100Z,2.60
2022-11-29T03:41:11.087Z,2.65
2022-11-29T03:43:42.089Z,2.83
2022-11-29T03:46:12.602Z,2.97
2022-11-29T03:48:43.689Z,2.92
2022-11-29T03:51:15.089Z,2.80
2022-11-29T03:53:46.553Z,2.95
2022-11-29T03:56:27.074Z,3.00
2022-11-29T03:59:00.625Z,2.70
2022-11-29T04:01:51.372Z,3.15
2022-11-29T04:04:54.476Z,3.35
2022-11-29T04:07:34.647Z,2.90
2022-11-29T04:10:15.917Z,2.90
2022-11-29T04:13:04.044Z,2.50
2022-11-29T04:16:07.514Z,2.70
2022-11-29T04:19:05.354Z,3.00
2022-11-29T04:21:56.869Z,2.50
2022-11-29T04:24:56.892Z,2.63
2022-11-29T04:27:48.570Z,3.10
2022-11-29T04:30:19.317Z,2.80
2022-11-29T04:33:30.217Z,3.28
2022-11-29T04:36:21.185Z,2.70
2022-11-29T04:39:01.410Z,2.55
2022-11-29T04:41:38.188Z,2.72
2022-11-29T04:44:17.843Z,2.80
2022-11-29T04:46:55.896Z,2.67
2022-11-29T04:50:06.007Z,2.95
2022-11-29T04:52:43.220Z,2.67
2022-11-29T04:55:21.638Z,2.95
2022-11-29T04:57:58.853Z,2.78
2022-11-29T05:00:30.115Z,2.50
2022-11-29T05:02:59.351Z,2.80
2022-11-29T05:05:32.065Z,3.08
2022-11-29T05:08:09.347Z,2.65
2022-11-29T05:10:41.169Z,2.40
2022-11-29T05:13:14.088Z,2.83
2022-11-29T05:16:12.976Z,2.65
2022-11-29T05:18:55.614Z,2.60
2022-11-29T05:21:28.828Z,2.95
2022-11-29T05:24:00.640Z,2.63
2022-11-29T05:26:31.707Z,2.47
2022-11-29T05:29:04.257Z,3.03
2022-11-29T05:31:42.456Z,2.72
2022-11-29T05:34:31.655Z,2.63
2022-11-29T05:37:06.820Z,2.72
2022-11-29T05:39:39.539Z,2.92
2022-11-29T05:42:34.590Z,2.58
2022-11-29T05:45:08.244Z,2.70
2022-11-29T05:47:38.280Z,2.90
2022-11-29T05:50:09.856Z,2.70
2022-11-29T05:52:48.664Z,2.70
2022-11-29T05:55:24.431Z,2.63
2022-11-29T05:57:56.462Z,2.63
2022-11-29T06:00:26.243Z,2.63
2022-11-29T06:02:58.827Z,2.90
2022-11-29T06:05:31.440Z,2.60
2022-11-29T06:08:02.637Z,2.72
2022-11-29T06:10:32.919Z,3.03
2022-11-29T06:13:09.441Z,2.60
2022-11-29T06:16:07.869Z,2.70
2022-11-29T06:18:50.126Z,2.80
2022-11-29T06:21:23.854Z,2.83
2022-11-29T06:23:59.657Z,3.03
2022-11-29T06:26:37.784Z,2.70
2022-11-29T06:29:22.161Z,2.40
2022-11-29T06:31:55.021Z,3.05
2022-11-29T06:34:30.709Z,2.70
2022-11-29T06:37:03.191Z,2.55
2022-11-29T06:39:34.529Z,2.55
2022-11-29T06:42:02.902Z,2.45
2022-11-29T06:44:31.766Z,2.72
2022-11-29T06:47:04.758Z,2.70
2022-11-29T06:49:34.969Z,2.40
2022-11-29T06:52:08.500Z,2.70
2022-11-29T06:54:43.333Z,2.42
2022-11-29T06:57:15.331Z,2.22
2022-11-29T06:59:50.548Z,2.40
2022-11-29T07:02:43.586Z,2.42
2022-11-29T07:05:15.211Z,2.15
2022-11-29T07:07:43.903Z,2.53
2022-11-29T07:10:16.248Z,2.15
2022-11-29T07:12:45.196Z,2.58
2022-11-29T07:15:16.022Z,2.17
2022-11-29T07:17:52.647Z,2.05
2022-11-29T07:20:26.334Z,2.70
2022-11-29T07:22:59.979Z,2.58
2022-11-29T07:25:33.333Z,2.28
2022-11-29T07:28:06.258Z,2.30
2022-11-29T07:30:38.817Z,1.98
2022-11-29T07:33:12.267Z,2.10
2022-11-29T07:35:44.334Z,2.42
2022-11-29T07:38:17.106Z,2.10
2022-11-29T07:40:49.357Z,2.42
2022-11-29T07:43:23.882Z,2.38
2022-11-29T07:45:52.400Z,2.20
2022-11-29T07:48:24.314Z,2.10
2022-11-29T07:50:52.663Z,2.03
2022-11-29T07:53:21.996Z,2.30
2022-11-29T07:55:50.392Z,2.15
2022-11-29T07:58:19.025Z,2.17
2022-11-29T08:00:47.507Z,2.13
2022-11-29T08:03:15.875Z,1.80
2022-11-29T08:05:47.790Z,2.13
2022-11-29T08:08:17.417Z,2.20
2022-11-29T08:10:45.776Z,2.67
2022-11-29T08:13:14.553Z,2.80
2022-11-29T08:15:45.449Z,2.63
2022-11-29T08:18:13.916Z,2.88
2022-11-29T08:20:42.210Z,2.28
2022-11-29T08:23:12.622Z,2.50
2022-11-29T08:25:41.248Z,2.63
2022-11-29T08:28:09.606Z,2.30
2022-11-29T08:30:37.922Z,2.30
2022-11-29T08:33:10.256Z,2.70
2022-11-29T08:35:39.868Z,2.78
2022-11-29T08:38:09.490Z,2.45
2022-11-29T08:40:39.206Z,2.60
2022-11-29T08:43:07.550Z,2.70
2022-11-29T08:45:35.886Z,2.40
2022-11-29T08:48:04.375Z,3.38
2022-11-29T08:50:32.705Z,4.30
2022-11-29T08:53:18.549Z,8.70
2022-11-29T08:55:48.325Z,9.32
2022-11-29T08:58:16.795Z,7.97
2022-11-29T09:00:46.735Z,8.70
2022-11-29T09:03:32.905Z,9.23
2022-11-29T09:06:10.509Z,8.57
2022-11-29T09:08:40.544Z,8.38
2022-11-29T09:11:13.145Z,8.25
2022-11-29T09:13:41.944Z,8.60
2022-11-29T09:16:11.874Z,7.30
2022-11-29T09:18:40.769Z,8.77
2022-11-29T09:21:10.059Z,6.82
2022-11-29T09:23:38.452Z,7.30
2022-11-29T09:26:07.385Z,7.05
2022-11-29T09:28:37.217Z,6.65
2022-11-29T09:31:06.891Z,7.70
2022-11-29T09:33:35.399Z,6.97
2022-11-29T09:36:04.038Z,7.05
2022-11-29T09:38:32.333Z,6.25
2022-11-29T09:41:07.407Z,6.05
2022-11-29T09:43:44.334Z,6.57
2022-11-29T09:46:18.243Z,5.75
2022-11-29T09:49:04.659Z,6.70
2022-11-29T09:51:38.573Z,6.22
2022-11-29T09:54:26.001Z,6.47
2022-11-29T09:56:55.428Z,5.55
2022-11-29T09:59:29.325Z,5.38
2022-11-29T10:01:59.820Z,5.22
2022-11-29T10:04:30.745Z,5.35
2022-11-29T10:07:02.266Z,5.30
2022-11-29T10:09:34.047Z,5.18
2022-11-29T10:12:07.142Z,4.68
2022-11-29T10:14:40.838Z,4.50
2022-11-29T10:17:14.381Z,4.75
2022-11-29T10:19:43.613Z,4.72
2022-11-29T10:22:16.948Z,4.40
2022-11-29T10:24:45.816Z,4.70
2022-11-29T10:27:16.217Z,4.50
2022-11-29T10:29:48.942Z,4.20
2022-11-29T10:32:17.505Z,4.07
2022-11-29T10:34:45.895Z,3.85
2022-11-29T10:37:15.308Z,4.25
2022-11-29T10:39:45.980Z,4.20
2022-11-29T10:42:35.940Z,3.65
2022-11-29T10:45:06.273Z,3.78
2022-11-29T10:47:41.340Z,3.92
2022-11-29T10:50:14.837Z,3.80
2022-11-29T10:52:43.161Z,3.10
2022-11-29T10:55:13.715Z,3.78
2022-11-29T10:58:09.783Z,3.25
2022-11-29T11:00:47.148Z,3.60
2022-11-29T11:03:18.897Z,3.25
2022-11-29T11:05:58.736Z,3.17
2022-11-29T11:08:29.692Z,3.03
2022-11-29T11:11:01.810Z,3.13
2022-11-29T11:13:31.473Z,3.60
2022-11-29T11:16:14.089Z,3.28
2022-11-29T11:18:42.435Z,2.95
2022-11-29T11:21:11.759Z,2.90
2022-11-29T11:23:46.577Z,2.70
2022-11-29T11:26:15.202Z,2.83
2022-11-29T11:28:45.325Z,3.63
2022-11-29T11:31:18.119Z,2.90
2022-11-29T11:33:49.312Z,2.45
2022-11-29T11:36:25.069Z,2.55
2022-11-29T11:38:54.193Z,2.63
2022-11-29T11:41:44.676Z,3.05
2022-11-29T11:44:48.270Z,2.47
2022-11-29T11:47:19.586Z,3.05
2022-11-29T11:49:49.304Z,2.80
2022-11-29T11:52:20.045Z,2.50
2022-11-29T11:54:49.509Z,2.53
2022-11-29T11:57:18.328Z,2.28
2022-11-29T11:59:48.777Z,2.30
2022-11-29T12:02:30.250Z,2.22
2022-11-29T12:05:00.527Z,2.63
2022-11-29T12:08:05.754Z,2.90
2022-11-29T12:10:23.537Z,2.30
2022-11-29T12:12:51.896Z,2.45
2022-11-29T12:15:21.668Z,2.38
2022-11-29T12:17:51.780Z,2.20
2022-11-29T12:20:23.300Z,2.58
2022-11-29T12:23:04.731Z,2.22
2022-11-29T12:25:35.448Z,2.13
2022-11-29T12:28:03.753Z,2.50
2022-11-29T12:30:32.037Z,2.80
2022-11-29T12:33:11.050Z,2.35
2022-11-29T12:36:09.693Z,2.53
2022-11-29T12:39:03.451Z,2.13
2022-11-29T12:41:36.007Z,2.90
2022-11-29T12:44:14.153Z,3.08
2022-11-29T12:46:42.475Z,3.28
2022-11-29T12:49:16.412Z,3.55
2022-11-29T12:51:47.605Z,3.53
2022-11-29T12:54:38.029Z,3.50
2022-11-29T12:57:08.994Z,3.72
2022-11-29T12:59:47.400Z,3.72
2022-11-29T13:02:34.223Z,4.00
2022-11-29T13:05:06.692Z,3.50
2022-11-29T13:07:39.132Z,3.70
2022-11-29T13:10:32.409Z,3.47
2022-11-29T13:13:03.899Z,3.00
2022-11-29T13:15:42.830Z,3.15
2022-11-29T13:18:14.460Z,3.30
2022-11-29T13:20:48.523Z,3.55
2022-11-29T13:23:20.798Z,4.03
2022-11-29T13:25:51.252Z,3.65
2022-11-29T13:28:22.516Z,3.17
2022-11-29T13:30:50.915Z,3.28
2022-11-29T13:33:23.157Z,3.53
2022-11-29T13:35:58.613Z,3.50
2022-11-29T13:38:30.420Z,3.50
2022-11-29T13:40:59.721Z,3.38
2022-11-29T13:43:31.089Z,3.35
2022-11-29T13:46:02.699Z,3.40
2022-11-29T13:48:38.268Z,3.20
2022-11-29T13:51:41.341Z,3.60
2022-11-29T13:54:29.278Z,3.85
2022-11-29T13:57:03.990Z,3.35
2022-11-29T13:59:33.676Z,3.53
2022-11-29T14:02:02.069Z,3.08
2022-11-29T14:04:38.245Z,2.92
2022-11-29T14:07:11.214Z,2.83
2022-11-29T14:09:49.404Z,2.90
2022-11-29T14:12:30.972Z,2.78
2022-11-29T14:15:01.488Z,2.70
2022-11-29T14:17:35.212Z,2.72
2022-11-29T14:20:52.313Z,2.88
2022-11-29T14:23:43.070Z,2.65
2022-11-29T14:26:32.557Z,2.72
2022-11-29T14:29:01.000Z,2.50
2022-11-29T14:31:52.681Z,2.50
2022-11-29T14:34:40.080Z,2.70
2022-11-29T14:37:16.373Z,2.38
2022-11-29T14:39:46.841Z,2.50
2022-11-29T14:42:18.436Z,2.42
2022-11-29T14:44:49.340Z,2.45
2022-11-29T14:47:26.815Z,2.72
2022-11-29T14:49:55.864Z,2.58
2022-11-29T14:52:29.860Z,2.30
2022-11-29T14:55:01.702Z,2.05
2022-11-29T14:58:08.693Z,2.33
2022-11-29T15:00:42.054Z,2.40
2022-11-29T15:03:15.597Z,1.85
2022-11-29T15:05:44.982Z,2.30
2022-11-29T15:08:15.963Z,2.35
2022-11-29T15:10:48.425Z,2.35
2022-11-29T15:13:18.688Z,2.10
2022-11-29T15:15:56.864Z,2.03
2022-11-29T15:18:37.127Z,2.20
2022-11-29T15:21:11.093Z,3.03
2022-11-29T15:23:42.598Z,2.58
2022-11-29T15:26:18.278Z,2.97
2022-11-29T15:28:46.696Z,2.28
2022-11-29T15:31:16.116Z,2.40
2022-11-29T15:33:45.178Z,2.40
2022-11-29T15:36:16.189Z,2.33
2022-11-29T15:38:46.683Z,2.53
2022-11-29T15:41:29.000Z,2.47
2022-11-29T15:43:58.224Z,2.80
2022-11-29T15:46:27.724Z,1.98
2022-11-29T15:48:56.465Z,3.08
2022-11-29T15:51:28.123Z,3.47
2022-11-29T15:54:12.308Z,3.65
2022-11-29T15:56:45.071Z,4.38
2022-11-29T15:59:17.265Z,4.15
2022-11-29T16:01:48.090Z,3.58
2022-11-29T16:04:21.420Z,3.53
2022-11-29T16:06:49.754Z,3.60
2022-11-29T16:09:19.046Z,3.55
2022-11-29T16:11:48.796Z,2.83
2022-11-29T16:14:19.508Z,3.25
2022-11-29T16:16:48.843Z,2.85
2022-11-29T16:19:22.367Z,3.47
2022-11-29T16:22:00.437Z,3.30
2022-11-29T16:24:28.706Z,2.95
2022-11-29T16:26:58.336Z,3.78
2022-11-29T16:29:28.405Z,3.13
2022-11-29T16:31:56.764Z,3.20
2022-11-29T16:34:27.496Z,2.75
2022-11-29T16:37:02.740Z,3.30
2022-11-29T16:39:33.685Z,2.97
2022-11-29T16:42:14.976Z,3.00
2022-11-29T16:45:13.029Z,2.70
2022-11-29T16:47:48.938Z,2.67
2022-11-29T16:50:21.233Z,2.53
2022-11-29T16:52:54.840Z,2.72
2022-11-29T16:55:24.759Z,3.00
2022-11-29T16:57:56.977Z,2.92
2022-11-29T17:00:30.403Z,2.60
2022-11-29T17:03:00.870Z,2.90
2022-11-29T17:05:44.548Z,2.80
2022-11-29T17:08:13.259Z,3.00
2022-11-29T17:10:41.627Z,2.80
2022-11-29T17:13:12.030Z,2.97
2022-11-29T17:15:40.472Z,3.50
2022-11-29T17:18:08.776Z,3.20
2022-11-29T17:20:37.111Z,3.38
2022-11-29T17:23:05.499Z,3.33
2022-11-29T17:25:33.840Z,3.58
2022-11-29T17:28:03.942Z,3.15
2022-11-29T17:30:33.678Z,3.47
2022-11-29T17:33:03.209Z,3.60
2022-11-29T17:35:34.056Z,2.92
2022-11-29T17:38:07.896Z,3.45
2022-11-29T17:40:36.167Z,3.40
2022-11-29T17:43:04.601Z,2.90
2022-11-29T17:45:34.558Z,3.42
2022-11-29T17:48:02.864Z,3.53
2022-11-29T17:50:31.497Z,3.08
2022-11-29T17:52:59.826Z,2.95
2022-11-29T17:55:29.779Z,3.20
2022-11-29T17:58:07.253Z,3.40
2022-11-29T18:00:36.885Z,3.28
2022-11-29T18:03:10.034Z,2.90
2022-11-29T18:05:39.147Z,3.22
2022-11-29T18:08:10.324Z,3.33
2022-11-29T18:10:41.489Z,3.22
2022-11-29T18:13:09.814Z,3.13
2022-11-29T18:15:39.456Z,2.95
2022-11-29T18:18:07.762Z,3.17
2022-11-29T18:20:38.798Z,3.33
2022-11-29T18:23:09.540Z,3.85
2022-11-29T18:25:39.456Z,2.72
2022-11-29T18:28:11.209Z,2.85
2022-11-29T18:30:42.273Z,3.10
2022-11-29T18:33:12.920Z,2.85
2022-11-29T18:35:43.635Z,2.83
2022-11-29T18:38:16.316Z,2.88
2022-11-29T18:40:47.640Z,3.85
2022-11-29T18:43:19.421Z,2.83
2022-11-29T18:45:49.103Z,3.47
2022-11-29T18:48:17.402Z,3.00
2022-11-29T18:50:47.014Z,2.90
2022-11-29T18:53:15.338Z,3.33
2022-11-29T18:55:43.661Z,3.30
2022-11-29T18:58:11.991Z,3.65
2022-11-29T19:00:40.770Z,3.30
2022-11-29T19:03:10.373Z,3.40
2022-11-29T19:05:38.637Z,3.35
2022-11-29T19:08:06.973Z,3.42
2022-11-29T19:10:35.242Z,3.60
2022-11-29T19:13:03.514Z,3.60
2022-11-29T19:15:31.965Z,3.17
2022-11-29T19:18:03.445Z,3.22
2022-11-29T19:20:35.521Z,3.90
2022-11-29T19:23:03.802Z,3.30
2022-11-29T19:25:35.290Z,3.28
2022-11-29T19:28:03.620Z,3.58
2022-11-29T19:30:32.314Z,3.70
2022-11-29T19:33:00.646Z,3.50
2022-11-29T19:35:28.937Z,4.15
2022-11-29T19:37:59.638Z,3.63
2022-11-29T19:40:28.232Z,4.00
2022-11-29T19:42:56.509Z,4.25
2022-11-29T19:45:25.671Z,3.63
2022-11-29T19:47:56.134Z,3.75
2022-11-29T19:50:24.404Z,3.92
2022-11-29T19:52:55.114Z,3.53
2022-11-29T19:55:24.873Z,3.38
2022-11-29T19:57:53.369Z,3.30
2022-11-29T20:00:21.989Z,3.60
2022-11-29T20:02:56.542Z,3.65
2022-11-29T20:05:25.759Z,3.42
2022-11-29T20:07:54.093Z,3.90
2022-11-29T20:10:25.048Z,4.20
2022-11-29T20:12:53.594Z,3.92
2022-11-29T20:15:22.727Z,3.83
2022-11-29T20:17:58.231Z,3.72
2022-11-29T20:20:26.698Z,3.70
2022-11-29T20:22:58.212Z,4.10
2022-11-29T20:25:27.885Z,4.30
2022-11-29T20:27:56.283Z,4.65
2022-11-29T20:30:25.784Z,4.45
2022-11-29T20:32:56.790Z,4.47
2022-11-29T20:35:25.563Z,4.38
2022-11-29T20:38:11.848Z,4.55
2022-11-29T20:40:47.624Z,4.45
2022-11-29T20:43:17.319Z,4.32
2022-11-29T20:45:46.047Z,4.00
2022-11-29T20:48:18.537Z,4.47
2022-11-29T20:51:00.324Z,5.65
2022-11-29T20:53:32.549Z,4.35
2022-11-29T20:56:02.259Z,4.55
2022-11-29T20:58:30.538Z,4.30
2022-11-29T21:00:58.826Z,4.05
2022-11-29T21:03:33.725Z,3.97
2022-11-29T21:06:02.660Z,4.20
2022-11-29T21:08:31.004Z,4.32
2022-11-29T21:11:04.506Z,3.75
2022-11-29T21:13:33.341Z,4.07
2022-11-29T21:16:02.093Z,3.95
2022-11-29T21:18:31.146Z,3.97
2022-11-29T21:21:12.169Z,4.25
2022-11-29T21:23:49.417Z,3.92
2022-11-29T21:26:21.379Z,3.58
2022-11-29T21:28:54.054Z,3.38
2022-11-29T21:31:22.837Z,3.78
2022-11-29T21:33:51.669Z,3.60
2022-11-29T21:36:19.964Z,3.28
2022-11-29T21:38:53.940Z,3.42
2022-11-29T21:41:24.895Z,3.70
2022-11-29T21:44:08.880Z,3.20
2022-11-29T21:46:37.474Z,3.85
2022-11-29T21:49:05.895Z,3.35
2022-11-29T21:51:34.549Z,3.17
2022-11-29T21:54:03.023Z,3.65
2022-11-29T21:56:32.647Z,3.13
2022-11-29T21:59:02.175Z,3.45
2022-11-29T22:01:33.159Z,3.25
2022-11-29T22:04:01.580Z,3.03
2022-11-29T22:06:48.680Z,3.70
2022-11-29T22:09:19.181Z,3.00
2022-11-29T22:11:48.900Z,3.10
2022-11-29T22:14:18.260Z,3.08
2022-11-29T22:16:48.503Z,3.70
2022-11-29T22:19:17.564Z,3.55
2022-11-29T22:21:48.689Z,3.63
2022-11-29T22:24:18.121Z,3.17
2022-11-29T22:26:49.871Z,3.55
2022-11-29T22:29:18.398Z,3.08
2022-11-29T22:31:48.469Z,3.60
2022-11-29T22:34:16.946Z,3.80
2022-11-29T22:36:51.415Z,3.17
2022-11-29T22:39:21.088Z,3.78
2022-11-29T22:41:54.305Z,3.22
2022-11-29T22:44:23.480Z,3.25
2022-11-29T22:46:51.823Z,3.15
2022-11-29T22:49:23.608Z,3.08
2022-11-29T22:51:52.297Z,3.25
2022-11-29T22:54:20.584Z,3.55
2022-11-29T22:56:50.253Z,3.47
2022-11-29T22:59:18.595Z,3.17
2022-11-29T23:01:52.404Z,3.13
2022-11-29T23:04:20.738Z,3.33
2022-11-29T23:06:49.020Z,3.00
2022-11-29T23:09:22.642Z,3.13
2022-11-29T23:11:53.109Z,3.15
2022-11-29T23:14:22.004Z,3.00
2022-11-29T23:16:50.477Z,3.35
2022-11-29T23:19:21.008Z,3.40
2022-11-29T23:21:49.328Z,3.60
2022-11-29T23:24:17.616Z,3.08
2022-11-29T23:26:46.803Z,2.95
2022-11-29T23:29:21.572Z,3.20
2022-11-29T23:31:49.994Z,3.08
2022-11-29T23:34:18.494Z,3.92
2022-11-29T23:36:52.655Z,3.58
2022-11-29T23:39:21.779Z,2.85
2022-11-29T23:41:50.098Z,2.95
2022-11-29T23:44:19.715Z,3.08
2022-11-29T23:46:47.984Z,3.10
2022-11-29T23:49:16.304Z,2.92
2022-11-29T23:51:49.031Z,3.03
2022-11-29T23:54:20.086Z,2.63
2022-11-29T23:56:48.434Z,3.00
2022-11-29T23:59:16.746Z,2.80
